createdAt,value
2022-12-15T00:01:04.727Z,25.85
2022-12-15T00:02:55.678Z,26.42
2022-12-15T00:04:46.471Z,25.35
2022-12-15T00:06:36.928Z,28.00
2022-12-15T00:08:28.920Z,27.38
2022-12-15T00:10:20.783Z,25.90
2022-12-15T00:12:11.256Z,26.02
2022-12-15T00:14:02.727Z,26.55
2022-12-15T00:15:53.371Z,25.02
2022-12-15T00:17:44.389Z,25.63
2022-12-15T00:19:35.117Z,25.15
2022-12-15T00:21:25.816Z,23.55
2022-12-15T00:23:16.336Z,25.52
2022-12-15T00:25:06.658Z,25.15
2022-12-15T00:26:58.586Z,27.75
2022-12-15T00:28:49.519Z,28.88
2022-12-15T00:30:39.945Z,24.60
2022-12-15T00:32:30.614Z,27.95
2022-12-15T00:34:21.128Z,26.35
2022-12-15T00:36:12.526Z,25.33
2022-12-15T00:38:03.034Z,24.88
2022-12-15T00:39:36.426Z,24.40
2022-12-15T00:41:08.951Z,27.10
2022-12-15T00:42:43.482Z,28.08
2022-12-15T00:44:20.572Z,26.30
2022-12-15T00:46:11.382Z,28.35
2022-12-15T00:47:44.558Z,29.48
2022-12-15T00:49:31.512Z,33.92
2022-12-15T00:51:04.927Z,30.92
2022-12-15T00:52:55.789Z,27.52
2022-12-15T00:54:46.328Z,21.60
2022-12-15T00:56:37.103Z,24.27
2022-12-15T00:58:29.049Z,27.30
2022-12-15T01:00:19.575Z,31.88
2022-12-15T01:02:10.356Z,26.15
2022-12-15T01:04:01.373Z,15.15
2022-12-15T01:05:52.599Z,12.30
2022-12-15T01:07:43.310Z,12.18
2022-12-15T01:09:33.992Z,10.93
2022-12-15T01:11:24.511Z,11.35
2022-12-15T01:13:15.343Z,11.85
2022-12-15T01:15:07.266Z,11.70
2022-12-15T01:16:57.554Z,10.65
2022-12-15T01:18:49.623Z,12.68
2022-12-15T01:20:23.009Z,11.88
2022-12-15T01:21:56.349Z,13.38
2022-12-15T01:23:30.462Z,12.20
2022-12-15T01:25:04.043Z,11.57
2022-12-15T01:26:37.206Z,11.70
2022-12-15T01:28:09.387Z,9.05
2022-12-15T01:29:42.566Z,9.80
2022-12-15T01:31:17.187Z,10.95
2022-12-15T01:32:50.856Z,11.55
2022-12-15T01:34:23.070Z,11.75
2022-12-15T01:36:00.787Z,13.05
2022-12-15T01:37:34.385Z,12.48
2022-12-15T01:39:07.553Z,12.00
2022-12-15T01:40:45.577Z,25.58
2022-12-15T01:42:17.741Z,16.63
2022-12-15T01:43:50.961Z,13.88
2022-12-15T01:45:46.994Z,11.80
2022-12-15T01:47:26.246Z,12.38
2022-12-15T01:49:13.176Z,13.05
2022-12-15T01:50:57.811Z,12.50
2022-12-15T01:52:31.000Z,11.65
2022-12-15T01:54:08.054Z,11.50
2022-12-15T01:55:42.897Z,10.50
2022-12-15T01:57:20.217Z,11.50
2022-12-15T01:58:57.796Z,11.82
2022-12-15T02:00:30.512Z,13.55
2022-12-15T02:02:04.963Z,18.27
2022-12-15T02:03:40.982Z,15.77
2022-12-15T02:05:13.577Z,14.13
2022-12-15T02:06:46.704Z,15.98
2022-12-15T02:08:19.083Z,12.80
2022-12-15T02:09:56.308Z,14.40
2022-12-15T02:12:01.796Z,13.35
2022-12-15T02:13:41.354Z,12.10
2022-12-15T02:15:21.859Z,15.80
2022-12-15T02:17:07.804Z,13.57
2022-12-15T02:18:54.033Z,15.88
2022-12-15T02:20:50.206Z,15.02
2022-12-15T02:22:35.625Z,12.88
2022-12-15T02:24:41.889Z,13.48
2022-12-15T02:26:46.334Z,11.32
2022-12-15T02:28:32.974Z,12.63
2022-12-15T02:30:37.612Z,12.60
2022-12-15T02:32:11.692Z,12.50
2022-12-15T02:33:51.505Z,15.25
2022-12-15T02:35:30.778Z,13.20
2022-12-15T02:37:09.687Z,12.30
2022-12-15T02:38:42.934Z,11.98
2022-12-15T02:40:15.100Z,13.93
2022-12-15T02:41:51.652Z,15.48
2022-12-15T02:43:24.873Z,14.60
2022-12-15T02:45:02.565Z,15.63
2022-12-15T02:46:48.578Z,15.40
2022-12-15T02:48:31.278Z,12.43
2022-12-15T02:50:30.229Z,12.32
2022-12-15T02:52:15.477Z,11.23
2022-12-15T02:54:12.321Z,10.30
2022-12-15T02:55:53.049Z,9.68
2022-12-15T02:57:32.547Z,10.90
2022-12-15T02:59:12.054Z,9.55
2022-12-15T03:00:59.312Z,9.23
2022-12-15T03:02:38.136Z,9.38
2022-12-15T03:04:13.174Z,8.48
2022-12-15T03:05:45.420Z,8.38
2022-12-15T03:07:18.673Z,8.88
2022-12-15T03:08:51.857Z,8.40
2022-12-15T03:10:26.768Z,7.57
2022-12-15T03:12:00.376Z,8.70
2022-12-15T03:13:33.935Z,8.85
2022-12-15T03:15:07.577Z,9.20
2022-12-15T03:16:40.782Z,8.30
2022-12-15T03:18:15.789Z,9.73
2022-12-15T03:19:49.723Z,8.70
2022-12-15T03:21:23.294Z,8.20
2022-12-15T03:22:55.466Z,11.98
2022-12-15T03:24:28.717Z,12.23
2022-12-15T03:26:01.957Z,16.17
2022-12-15T03:27:37.909Z,12.75
2022-12-15T03:29:11.167Z,13.38
2022-12-15T03:30:44.349Z,12.77
2022-12-15T03:32:18.117Z,13.70
2022-12-15T03:33:52.767Z,13.88
2022-12-15T03:35:24.900Z,12.27
2022-12-15T03:36:58.442Z,10.20
2022-12-15T03:38:31.717Z,8.50
2022-12-15T03:40:05.231Z,7.15
2022-12-15T03:41:38.441Z,7.65
2022-12-15T03:43:12.769Z,6.85
2022-12-15T03:44:45.965Z,8.00
2022-12-15T03:46:19.255Z,6.95
2022-12-15T03:47:53.073Z,5.60
2022-12-15T03:49:27.651Z,6.75
2022-12-15T03:51:00.835Z,5.40
2022-12-15T03:52:33.945Z,6.05
2022-12-15T03:54:07.492Z,7.40
2022-12-15T03:55:40.612Z,7.10
2022-12-15T03:57:13.787Z,6.05
2022-12-15T03:58:47.037Z,6.43
2022-12-15T04:00:21.697Z,6.18
2022-12-15T04:01:56.548Z,7.20
2022-12-15T04:03:30.212Z,5.72
2022-12-15T04:05:05.266Z,5.10
2022-12-15T04:06:37.446Z,6.13
2022-12-15T04:08:10.638Z,7.38
2022-12-15T04:09:42.841Z,7.32
2022-12-15T04:11:16.020Z,6.55
2022-12-15T04:12:49.266Z,6.68
2022-12-15T04:14:21.400Z,6.15
2022-12-15T04:15:54.773Z,6.82
2022-12-15T04:17:26.928Z,6.88
2022-12-15T04:19:17.226Z,7.00
2022-12-15T04:20:51.748Z,4.35
2022-12-15T04:22:24.739Z,5.80
2022-12-15T04:24:15.299Z,4.57
2022-12-15T04:26:06.537Z,4.63
2022-12-15T04:28:01.488Z,4.47
2022-12-15T04:29:52.246Z,3.42
2022-12-15T04:31:45.716Z,4.45
2022-12-15T04:33:36.587Z,3.65
2022-12-15T04:35:27.961Z,3.35
2022-12-15T04:37:20.468Z,5.55
2022-12-15T04:39:11.048Z,6.20
2022-12-15T04:41:01.826Z,5.57
2022-12-15T04:42:53.990Z,3.40
2022-12-15T04:44:44.560Z,5.68
2022-12-15T04:46:40.580Z,4.60
2022-12-15T04:48:31.815Z,5.05
2022-12-15T04:50:23.046Z,3.92
2022-12-15T04:52:13.874Z,4.65
2022-12-15T04:54:05.766Z,4.28
2022-12-15T04:55:56.629Z,6.03
2022-12-15T04:57:47.422Z,5.53
2022-12-15T04:59:38.207Z,5.72
2022-12-15T05:01:28.864Z,5.28
2022-12-15T05:03:23.363Z,6.45
2022-12-15T05:05:13.851Z,4.75
2022-12-15T05:07:04.281Z,4.90
2022-12-15T05:08:54.890Z,5.35
2022-12-15T05:10:47.020Z,5.80
2022-12-15T05:12:37.455Z,4.22
2022-12-15T05:14:28.156Z,7.13
2022-12-15T05:16:18.990Z,6.57
2022-12-15T05:18:09.828Z,6.70
2022-12-15T05:20:00.215Z,6.93
2022-12-15T05:21:51.015Z,4.35
2022-12-15T05:23:41.824Z,6.07
2022-12-15T05:25:32.461Z,5.47
2022-12-15T05:27:24.706Z,6.43
2022-12-15T05:29:15.664Z,7.15
2022-12-15T05:31:06.302Z,10.57
2022-12-15T05:32:39.448Z,9.80
2022-12-15T05:34:12.570Z,9.68
2022-12-15T05:35:50.104Z,10.35
2022-12-15T05:37:23.246Z,8.82
2022-12-15T05:38:55.451Z,8.32
2022-12-15T05:40:28.579Z,8.13
2022-12-15T05:42:01.747Z,9.35
2022-12-15T05:43:35.585Z,8.35
2022-12-15T05:45:10.340Z,9.23
2022-12-15T05:46:43.575Z,10.57
2022-12-15T05:48:17.812Z,12.73
2022-12-15T05:49:51.928Z,13.65
2022-12-15T05:51:24.441Z,13.68
2022-12-15T05:52:59.618Z,12.88
2022-12-15T05:54:33.083Z,10.90
2022-12-15T05:56:08.358Z,8.75
2022-12-15T05:57:41.527Z,10.50
2022-12-15T05:59:17.318Z,13.30
2022-12-15T06:00:50.440Z,13.02
2022-12-15T06:02:23.681Z,10.18
2022-12-15T06:03:57.230Z,9.32
2022-12-15T06:05:30.467Z,10.38
2022-12-15T06:07:05.387Z,9.55
2022-12-15T06:08:41.415Z,12.90
2022-12-15T06:10:14.779Z,14.57
2022-12-15T06:11:48.761Z,19.90
2022-12-15T06:13:23.089Z,15.88
2022-12-15T06:14:57.863Z,14.13
